createdAt,value
2023-03-17T09:41:30.815Z,20.10
2023-03-17T09:42:01.786Z,19.94
2023-03-17T09:42:43.639Z,19.58
2023-03-17T09:43:04.190Z,18.33
2023-03-17T09:43:32.038Z,17.50
2023-03-17T09:44:02.798Z,16.15
2023-03-17T09:44:32.782Z,15.48
2023-03-17T09:45:02.939Z,14.57
2023-03-17T09:45:34.700Z,13.84
2023-03-17T09:46:02.223Z,13.44
2023-03-17T09:46:32.210Z,13.04
2023-03-17T09:47:02.125Z,12.57
2023-03-17T09:47:33.107Z,11.89
2023-03-17T09:48:02.353Z,11.61
2023-03-17T09:48:32.509Z,11.43
2023-03-17T09:49:02.399Z,11.27
2023-03-17T09:49:32.662Z,11.16
2023-03-17T09:50:02.604Z,11.02
2023-03-17T09:50:33.285Z,11.03
2023-03-17T09:51:02.667Z,10.99
2023-03-17T09:51:32.984Z,11.01
2023-03-17T09:52:32.831Z,10.89
2023-03-17T09:53:04.074Z,10.81
2023-03-17T09:53:32.983Z,10.74
2023-03-17T09:54:03.181Z,10.74
2023-03-17T09:54:33.021Z,10.66
2023-03-17T09:55:03.172Z,10.65
2023-03-17T09:55:33.714Z,10.53
2023-03-17T09:56:03.201Z,10.55
2023-03-17T09:56:33.283Z,10.40
2023-03-17T09:57:03.342Z,10.40
2023-03-17T09:57:33.495Z,10.33
2023-03-17T09:58:03.755Z,10.34
2023-03-17T09:58:33.819Z,10.39
2023-03-17T09:59:03.566Z,10.34
2023-03-17T09:59:33.590Z,10.32
2023-03-17T10:00:04.291Z,10.33
2023-03-17T10:00:33.679Z,10.33
2023-03-17T10:01:03.816Z,10.33
2023-03-17T10:01:33.875Z,10.28
2023-03-17T10:02:03.939Z,10.26
2023-03-17T10:02:33.839Z,10.28
2023-03-17T10:03:03.902Z,10.30
2023-03-17T10:03:34.089Z,10.28
2023-03-17T10:04:04.149Z,10.26
2023-03-17T10:04:34.116Z,10.21
2023-03-17T10:05:04.354Z,10.25
2023-03-17T10:05:34.779Z,10.22
2023-03-17T10:06:04.399Z,10.18
2023-03-17T10:06:34.457Z,10.30
2023-03-17T10:07:04.415Z,10.26
2023-03-17T10:07:34.508Z,10.28
2023-03-17T10:08:05.431Z,10.26
2023-03-17T10:08:34.662Z,10.30
2023-03-17T10:09:04.809Z,10.37
2023-03-17T10:09:34.822Z,10.43
2023-03-17T10:10:04.856Z,10.44
2023-03-17T10:10:34.893Z,10.51
2023-03-17T10:11:04.861Z,10.53
2023-03-17T10:11:34.927Z,10.58
2023-03-17T10:12:05.062Z,10.62
2023-03-17T10:12:35.005Z,10.66
2023-03-17T10:13:05.144Z,10.65
2023-03-17T10:13:35.245Z,10.73
